createdAt,value
2023-02-12T00:01:18.369Z,0.40
2023-02-12T00:03:45.593Z,0.40
2023-02-12T00:06:15.725Z,0.50
2023-02-12T00:08:43.337Z,0.50
2023-02-12T00:11:12.904Z,0.60
2023-02-12T00:13:40.055Z,0.60
2023-02-12T00:16:09.771Z,0.60
2023-02-12T00:18:37.015Z,0.60
2023-02-12T00:21:04.468Z,0.60
2023-02-12T00:23:31.798Z,0.70
2023-02-12T00:25:58.910Z,0.70
2023-02-12T00:28:26.493Z,0.90
2023-02-12T00:30:53.642Z,0.90
2023-02-12T00:33:20.707Z,0.80
2023-02-12T00:35:57.016Z,0.80
2023-02-12T00:38:24.224Z,0.70
2023-02-12T00:40:52.073Z,0.70
2023-02-12T00:43:19.049Z,0.70
2023-02-12T00:45:46.700Z,0.70
2023-02-12T00:48:14.839Z,0.70
2023-02-12T00:50:44.494Z,0.70
2023-02-12T00:53:11.572Z,0.70
2023-02-12T00:55:38.474Z,0.70
2023-02-12T00:58:06.572Z,0.80
2023-02-12T01:00:34.282Z,0.80
2023-02-12T01:03:01.769Z,0.90
2023-02-12T01:05:28.666Z,0.90
2023-02-12T01:07:56.297Z,0.90
2023-02-12T01:10:23.737Z,1.00
2023-02-12T01:12:50.884Z,1.00
2023-02-12T01:15:18.153Z,1.10
2023-02-12T01:17:45.206Z,1.10
2023-02-12T01:20:17.498Z,1.20
2023-02-12T01:22:44.482Z,1.20
2023-02-12T01:25:12.472Z,1.30
2023-02-12T01:27:39.473Z,1.30
2023-02-12T01:30:10.908Z,1.30
2023-02-12T01:32:38.281Z,1.40
2023-02-12T01:35:06.200Z,1.40
2023-02-12T01:37:36.128Z,1.50
2023-02-12T01:40:04.352Z,1.50
2023-02-12T01:42:31.388Z,1.50
2023-02-12T01:45:13.389Z,1.60
2023-02-12T01:47:42.130Z,1.60
2023-02-12T01:50:13.114Z,1.60
2023-02-12T01:52:43.576Z,1.60
2023-02-12T01:55:11.752Z,1.60
2023-02-12T01:57:42.868Z,1.60
2023-02-12T02:00:14.509Z,1.60
2023-02-12T02:02:45.641Z,1.60
2023-02-12T02:05:21.826Z,1.60
2023-02-12T02:07:49.643Z,1.50
2023-02-12T02:10:17.016Z,1.50
2023-02-12T02:13:02.684Z,1.50
2023-02-12T02:15:30.901Z,1.50
2023-02-12T02:18:22.660Z,1.60
2023-02-12T02:21:27.466Z,1.60
2023-02-12T02:24:09.679Z,1.60
2023-02-12T02:26:54.483Z,1.60
2023-02-12T02:29:56.668Z,1.50
2023-02-12T02:32:25.498Z,1.50
2023-02-12T02:39:29.702Z,1.50
2023-02-12T02:42:37.526Z,1.50
2023-02-12T02:45:30.016Z,1.40
2023-02-12T02:48:04.680Z,1.40
2023-02-12T02:50:35.495Z,1.40
2023-02-12T02:53:12.887Z,1.40
2023-02-12T02:55:47.862Z,1.30
2023-02-12T02:58:31.273Z,1.30
2023-02-12T03:01:06.343Z,1.30
2023-02-12T03:03:38.328Z,1.40
2023-02-12T03:06:13.812Z,1.40
2023-02-12T03:08:47.791Z,1.30
2023-02-12T03:11:31.150Z,1.20
2023-02-12T03:14:20.169Z,1.30
2023-02-12T03:17:02.552Z,1.30
2023-02-12T03:19:52.193Z,1.30
2023-02-12T03:22:30.710Z,1.30
2023-02-12T03:25:09.554Z,1.30
2023-02-12T03:27:40.704Z,1.30
2023-02-12T03:30:10.001Z,1.30
2023-02-12T03:33:01.203Z,1.30
2023-02-12T03:35:41.948Z,1.40
2023-02-12T03:38:21.622Z,1.50
2023-02-12T03:40:59.941Z,1.60
2023-02-12T03:43:52.839Z,1.60
2023-02-12T03:46:27.855Z,1.60
2023-02-12T03:49:21.253Z,1.60
2023-02-12T03:51:48.202Z,1.50
2023-02-12T03:54:18.924Z,1.50
2023-02-12T03:56:54.370Z,1.60
2023-02-12T03:59:25.533Z,1.60
2023-02-12T04:01:54.863Z,1.60
2023-02-12T04:04:24.205Z,1.70
2023-02-12T04:06:51.963Z,1.70
2023-02-12T04:09:19.942Z,1.70
2023-02-12T04:12:01.928Z,1.70
2023-02-12T04:14:41.337Z,1.60
2023-02-12T04:17:17.792Z,1.60
2023-02-12T04:20:05.337Z,1.50
2023-02-12T04:22:57.306Z,1.50
2023-02-12T04:25:55.239Z,1.50
2023-02-12T04:28:43.923Z,1.60
2023-02-12T04:31:36.450Z,1.70
2023-02-12T04:34:10.271Z,1.80
2023-02-12T04:37:10.504Z,1.80
2023-02-12T04:39:40.379Z,1.90
2023-02-12T04:42:07.281Z,1.80
2023-02-12T04:44:38.959Z,1.80
2023-02-12T04:47:05.964Z,1.80
2023-02-12T04:49:33.161Z,1.80
2023-02-12T04:52:00.150Z,1.80
2023-02-12T04:54:27.463Z,1.80
2023-02-12T04:56:54.560Z,1.90
2023-02-12T04:59:21.485Z,1.90
2023-02-12T05:01:48.409Z,1.90
2023-02-12T05:04:16.939Z,1.90
2023-02-12T05:06:44.594Z,1.90
2023-02-12T05:09:16.218Z,1.90
2023-02-12T05:11:43.321Z,1.90
2023-02-12T05:14:10.527Z,1.90
2023-02-12T05:16:37.478Z,1.90
2023-02-12T05:19:04.521Z,1.90
2023-02-12T05:21:31.435Z,1.90
2023-02-12T05:23:58.600Z,1.90
2023-02-12T05:26:25.392Z,1.80
2023-02-12T05:28:52.294Z,1.90
2023-02-12T05:31:21.487Z,1.80
2023-02-12T05:33:50.112Z,1.80
2023-02-12T05:36:22.783Z,1.80
2023-02-12T05:38:50.670Z,1.80
2023-02-12T05:41:20.416Z,1.80
2023-02-12T05:43:49.641Z,1.80
2023-02-12T05:46:18.314Z,1.80
2023-02-12T05:48:45.567Z,1.80
2023-02-12T05:51:17.676Z,1.80
2023-02-12T05:53:44.503Z,1.80
2023-02-12T05:56:18.057Z,1.80
2023-02-12T05:58:47.904Z,1.80
2023-02-12T06:01:22.047Z,1.80
2023-02-12T06:03:49.384Z,1.80
2023-02-12T06:06:16.403Z,1.90
2023-02-12T06:08:43.309Z,1.90
2023-02-12T06:11:14.355Z,1.90
2023-02-12T06:13:41.510Z,1.90
2023-02-12T06:16:16.346Z,1.90
2023-02-12T06:18:43.845Z,1.90
2023-02-12T06:21:10.717Z,1.90
2023-02-12T06:23:37.498Z,1.90
2023-02-12T06:26:04.504Z,2.00
2023-02-12T06:28:31.386Z,1.90
2023-02-12T06:30:59.541Z,1.90
2023-02-12T06:33:26.458Z,1.90
2023-02-12T06:35:53.556Z,1.90
2023-02-12T06:38:20.992Z,1.90
2023-02-12T06:40:48.001Z,1.90
2023-02-12T06:43:14.808Z,1.90
2023-02-12T06:45:41.874Z,2.00
2023-02-12T06:48:08.696Z,2.00
2023-02-12T06:50:35.795Z,2.10
2023-02-12T06:53:03.131Z,2.20
2023-02-12T06:55:30.092Z,2.30
2023-02-12T06:57:56.881Z,2.30
2023-02-12T07:00:23.910Z,2.40
2023-02-12T07:02:55.258Z,2.30
2023-02-12T07:05:23.224Z,2.20
2023-02-12T07:07:50.356Z,2.30
2023-02-12T07:10:18.359Z,2.30
2023-02-12T07:12:45.550Z,2.40
2023-02-12T07:15:12.806Z,2.50
2023-02-12T07:17:40.303Z,2.60
2023-02-12T07:20:08.421Z,2.70
2023-02-12T07:22:38.871Z,2.70
2023-02-12T07:25:06.359Z,2.70
2023-02-12T07:27:37.394Z,2.70
2023-02-12T07:30:05.599Z,2.70
2023-02-12T07:32:33.736Z,2.80
2023-02-12T07:35:00.931Z,2.80
2023-02-12T07:37:27.982Z,2.80
2023-02-12T07:39:54.866Z,2.90
2023-02-12T07:42:21.732Z,3.10
2023-02-12T07:44:50.466Z,3.10
2023-02-12T07:47:17.574Z,3.20
2023-02-12T07:49:44.453Z,3.20
2023-02-12T07:52:13.521Z,3.20
2023-02-12T07:54:40.462Z,3.30
2023-02-12T07:57:07.413Z,3.40
2023-02-12T07:59:34.290Z,3.40
2023-02-12T08:02:01.178Z,3.50
2023-02-12T08:04:28.317Z,3.60
2023-02-12T08:06:56.429Z,3.70
2023-02-12T08:09:26.425Z,3.90
2023-02-12T08:11:53.875Z,3.90
2023-02-12T08:14:21.905Z,3.90
2023-02-12T08:16:50.286Z,4.00
2023-02-12T08:19:21.728Z,4.00
2023-02-12T08:21:52.358Z,4.00
2023-02-12T08:24:19.352Z,4.00
2023-02-12T08:26:46.209Z,4.00
2023-02-12T08:29:22.331Z,4.20
2023-02-12T08:31:50.931Z,4.50
2023-02-12T08:34:23.336Z,4.60
2023-02-12T08:36:51.921Z,4.80
2023-02-12T08:39:19.032Z,4.80
2023-02-12T08:41:47.045Z,4.90
2023-02-12T08:44:15.479Z,4.90
2023-02-12T08:46:48.286Z,4.90
2023-02-12T08:49:21.384Z,4.90
2023-02-12T08:51:50.878Z,5.00
2023-02-12T08:54:21.004Z,5.10
2023-02-12T08:56:48.627Z,5.10
2023-02-12T08:59:16.530Z,5.30
2023-02-12T09:01:44.630Z,5.30
2023-02-12T09:04:32.185Z,5.30
2023-02-12T09:06:59.977Z,5.40
2023-02-12T09:09:27.041Z,5.50
2023-02-12T09:11:53.894Z,5.50
2023-02-12T09:14:24.648Z,5.50
2023-02-12T09:16:53.220Z,5.80
2023-02-12T09:19:20.732Z,6.00
2023-02-12T09:21:54.708Z,6.00
2023-02-12T09:24:26.050Z,6.10
2023-02-12T09:26:52.936Z,6.00
2023-02-12T09:29:19.803Z,6.00
2023-02-12T09:31:46.787Z,6.20
2023-02-12T09:34:13.752Z,6.30
2023-02-12T09:36:40.590Z,6.40
2023-02-12T09:39:07.920Z,6.20
2023-02-12T09:42:01.287Z,6.20
2023-02-12T09:44:42.268Z,6.20
2023-02-12T09:47:20.894Z,6.40
2023-02-12T09:50:14.974Z,6.50
2023-02-12T09:52:42.078Z,6.50
2023-02-12T09:55:17.862Z,6.20
2023-02-12T09:57:45.726Z,6.40
2023-02-12T10:00:31.094Z,6.50
2023-02-12T10:03:05.529Z,6.60
2023-02-12T10:05:38.573Z,6.60
2023-02-12T10:08:42.452Z,6.70
2023-02-12T10:11:31.114Z,6.80
2023-02-12T10:14:14.652Z,6.90
2023-02-12T10:16:44.486Z,6.90
2023-02-12T10:19:27.332Z,7.10
2023-02-12T10:22:24.162Z,7.40
2023-02-12T10:25:09.562Z,7.70
2023-02-12T10:27:43.448Z,7.40
2023-02-12T10:30:40.463Z,7.40
2023-02-12T10:33:12.896Z,7.30
2023-02-12T10:35:51.492Z,7.10
2023-02-12T10:38:22.695Z,7.60
2023-02-12T10:40:50.391Z,7.40
2023-02-12T10:43:17.859Z,7.50
2023-02-12T10:45:44.774Z,7.40
2023-02-12T10:48:17.926Z,7.90
2023-02-12T10:51:02.616Z,8.00
2023-02-12T10:53:38.693Z,8.50
2023-02-12T10:56:11.934Z,9.30
2023-02-12T10:58:59.803Z,9.70
2023-02-12T11:01:33.118Z,9.40
2023-02-12T11:04:18.800Z,9.80
2023-02-12T11:07:04.786Z,10.20
2023-02-12T11:09:48.155Z,10.70
2023-02-12T11:12:35.158Z,10.80
2023-02-12T11:15:07.674Z,10.40
2023-02-12T11:17:37.929Z,10.50
2023-02-12T11:20:20.304Z,10.20
2023-02-12T11:23:06.396Z,9.40
2023-02-12T11:25:37.104Z,8.90
2023-02-12T11:28:14.233Z,8.70
2023-02-12T11:30:55.627Z,8.80
2023-02-12T11:33:35.401Z,8.50
2023-02-12T11:36:07.050Z,8.60
2023-02-12T11:38:47.291Z,8.40
2023-02-12T11:41:29.478Z,8.50
2023-02-12T11:43:56.726Z,8.70
2023-02-12T11:46:26.791Z,8.90
2023-02-12T11:48:56.791Z,9.00
2023-02-12T11:51:29.786Z,8.70
2023-02-12T11:54:00.513Z,8.50
2023-02-12T11:56:45.607Z,9.20
2023-02-12T11:59:39.088Z,10.20
2023-02-12T12:02:12.054Z,10.70
2023-02-12T12:04:40.836Z,10.60
2023-02-12T12:07:30.213Z,10.80
2023-02-12T12:10:34.190Z,10.30
2023-02-12T12:13:10.427Z,9.50
2023-02-12T12:16:02.178Z,8.90
2023-02-12T12:19:13.888Z,8.50
2023-02-12T12:22:15.692Z,8.30
2023-02-12T12:24:50.740Z,8.90
2023-02-12T12:27:47.148Z,9.50
2023-02-12T12:30:28.787Z,9.60
2023-02-12T12:32:59.599Z,9.50
2023-02-12T12:35:43.470Z,9.80
2023-02-12T12:38:41.057Z,10.10
2023-02-12T12:41:24.772Z,10.40
2023-02-12T12:44:09.527Z,11.00
2023-02-12T12:47:05.819Z,11.00
2023-02-12T12:49:39.374Z,10.70
2023-02-12T12:52:40.447Z,9.70
2023-02-12T12:55:24.006Z,10.20
2023-02-12T12:58:30.489Z,10.30
2023-02-12T13:01:15.891Z,10.30
2023-02-12T13:04:01.074Z,9.20
2023-02-12T13:06:50.713Z,9.40
2023-02-12T13:09:47.526Z,8.70
2023-02-12T13:12:35.652Z,9.10
2023-02-12T13:15:21.119Z,9.70
2023-02-12T13:18:15.118Z,9.90
2023-02-12T13:20:56.371Z,10.30
2023-02-12T13:23:29.527Z,10.60
2023-02-12T13:26:11.776Z,11.00
2023-02-12T13:28:42.756Z,10.60
2023-02-12T13:31:31.896Z,10.80
2023-02-12T13:34:03.782Z,11.50
2023-02-12T13:36:30.906Z,11.70
2023-02-12T13:39:25.084Z,11.10
2023-02-12T13:42:21.948Z,11.00
2023-02-12T13:44:56.335Z,10.40
2023-02-12T13:47:32.241Z,10.60
2023-02-12T13:50:17.591Z,10.60
2023-02-12T13:53:26.057Z,10.30
2023-02-12T13:56:17.869Z,10.30
2023-02-12T13:58:53.580Z,10.60
2023-02-12T14:01:41.779Z,10.40
2023-02-12T14:04:29.236Z,10.00
2023-02-12T14:07:07.792Z,10.30
2023-02-12T14:09:46.179Z,10.50
2023-02-12T14:12:15.221Z,10.20
2023-02-12T14:14:47.248Z,10.40
2023-02-12T14:17:29.778Z,10.90
2023-02-12T14:20:06.865Z,11.10
2023-02-12T14:22:33.582Z,10.80
2023-02-12T14:25:40.264Z,10.50
2023-02-12T14:28:27.094Z,10.30
2023-02-12T14:31:19.256Z,11.10
2023-02-12T14:33:48.215Z,11.10
2023-02-12T14:36:42.725Z,11.10
2023-02-12T14:39:24.598Z,11.00
2023-02-12T14:41:53.843Z,10.70
2023-02-12T14:44:22.969Z,10.90
2023-02-12T14:46:59.452Z,10.90
2023-02-12T14:49:35.660Z,11.10
2023-02-12T14:52:17.947Z,11.30
2023-02-12T14:55:07.706Z,11.30
2023-02-12T14:57:42.338Z,11.30
2023-02-12T15:00:21.846Z,11.30
2023-02-12T15:03:02.592Z,11.30
2023-02-12T15:05:43.081Z,11.30
2023-02-12T15:08:31.414Z,11.10
2023-02-12T15:11:14.443Z,11.00
2023-02-12T15:13:57.387Z,10.90
2023-02-12T15:16:24.558Z,10.90
2023-02-12T15:19:00.132Z,10.50
2023-02-12T15:21:30.321Z,10.40
2023-02-12T15:24:09.086Z,10.00
2023-02-12T15:26:57.528Z,9.60
2023-02-12T15:29:33.043Z,9.70
2023-02-12T15:32:02.875Z,9.50
2023-02-12T15:34:32.483Z,9.50
2023-02-12T15:37:03.094Z,9.30
2023-02-12T15:39:43.701Z,9.50
2023-02-12T15:42:33.670Z,9.10
2023-02-12T15:45:15.648Z,9.00
2023-02-12T15:47:43.903Z,9.40
2023-02-12T15:50:16.147Z,9.00
2023-02-12T15:52:46.290Z,9.00
2023-02-12T15:55:36.064Z,8.90
2023-02-12T15:58:03.039Z,8.80
2023-02-12T16:00:47.734Z,8.60
2023-02-12T16:03:36.317Z,8.50
2023-02-12T16:06:11.688Z,8.20
2023-02-12T16:08:40.562Z,7.80
2023-02-12T16:11:15.229Z,7.40
2023-02-12T16:13:55.288Z,7.00
2023-02-12T16:16:26.987Z,6.60
2023-02-12T16:19:27.535Z,6.40
2023-02-12T16:22:16.527Z,5.90
2023-02-12T16:24:49.983Z,5.70
2023-02-12T16:27:27.187Z,5.30
2023-02-12T16:29:57.439Z,5.00
2023-02-12T16:32:28.578Z,4.80
2023-02-12T16:35:26.683Z,4.50
2023-02-12T16:38:20.328Z,4.30
2023-02-12T16:41:25.377Z,4.10
2023-02-12T16:44:01.382Z,3.90
2023-02-12T16:46:30.911Z,3.70
2023-02-12T16:49:00.692Z,3.60
2023-02-12T16:51:44.068Z,3.50
2023-02-12T16:54:32.238Z,3.40
2023-02-12T16:57:00.394Z,3.30
2023-02-12T16:59:28.930Z,3.10
2023-02-12T17:02:11.637Z,3.00
2023-02-12T17:04:38.531Z,3.00
2023-02-12T17:07:18.704Z,3.00
2023-02-12T17:09:45.687Z,3.10
2023-02-12T17:12:12.737Z,3.10
2023-02-12T17:14:39.586Z,3.00
2023-02-12T17:17:06.527Z,2.90
2023-02-12T17:19:33.771Z,2.80
2023-02-12T17:22:00.789Z,2.60
2023-02-12T17:24:30.678Z,2.60
2023-02-12T17:26:57.971Z,2.60
2023-02-12T17:29:26.103Z,2.50
2023-02-12T17:31:54.095Z,2.50
2023-02-12T17:34:22.368Z,2.40
2023-02-12T17:36:50.218Z,2.40
2023-02-12T17:39:18.250Z,2.50
2023-02-12T17:41:45.502Z,2.50
2023-02-12T17:44:14.941Z,2.50
2023-02-12T17:46:43.135Z,2.50
2023-02-12T17:49:10.377Z,2.50
2023-02-12T17:51:37.475Z,2.60
2023-02-12T17:54:05.017Z,2.70
2023-02-12T17:56:32.421Z,2.70
2023-02-12T17:59:00.427Z,2.80
2023-02-12T18:01:27.818Z,2.80
2023-02-12T18:03:57.277Z,2.80
2023-02-12T18:06:31.244Z,2.70
2023-02-12T18:08:59.484Z,2.70
2023-02-12T18:11:27.626Z,2.70
2023-02-12T18:13:56.105Z,2.70
2023-02-12T18:16:25.462Z,2.60
2023-02-12T18:18:52.383Z,2.50
2023-02-12T18:21:19.858Z,2.40
2023-02-12T18:23:47.159Z,2.40
2023-02-12T18:26:18.641Z,2.40
2023-02-12T18:28:46.431Z,2.50
2023-02-12T18:31:18.636Z,2.50
2023-02-12T18:33:45.703Z,2.50
2023-02-12T18:36:18.742Z,2.50
2023-02-12T18:38:47.526Z,2.50
2023-02-12T18:41:23.554Z,2.50
2023-02-12T18:43:50.696Z,2.50
2023-02-12T18:46:20.112Z,2.40
2023-02-12T18:48:47.412Z,2.40
2023-02-12T18:51:16.642Z,2.40
2023-02-12T18:53:43.730Z,2.30
2023-02-12T18:56:12.086Z,2.30
2023-02-12T18:58:39.554Z,2.30
2023-02-12T19:01:19.948Z,2.20
2023-02-12T19:03:48.683Z,2.20
2023-02-12T19:06:15.822Z,2.20
2023-02-12T19:08:44.034Z,2.10
2023-02-12T19:11:14.260Z,2.20
2023-02-12T19:13:41.728Z,2.20
2023-02-12T19:16:11.235Z,2.20
2023-02-12T19:18:38.671Z,2.20
2023-02-12T19:21:07.384Z,2.10
2023-02-12T19:23:34.414Z,2.00
2023-02-12T19:26:09.458Z,2.00
2023-02-12T19:28:38.390Z,2.00
2023-02-12T19:31:19.338Z,1.90
2023-02-12T19:33:48.495Z,1.80
2023-02-12T19:36:18.917Z,1.70
2023-02-12T19:38:47.057Z,1.60
2023-02-12T19:41:19.717Z,1.60
2023-02-12T19:43:46.979Z,1.50
2023-02-12T19:46:17.333Z,1.50
2023-02-12T19:48:45.726Z,1.40
2023-02-12T19:51:14.576Z,1.30
2023-02-12T19:53:42.019Z,1.20
2023-02-12T19:56:09.299Z,1.20
2023-02-12T19:58:36.705Z,1.10
2023-02-12T20:01:19.343Z,1.10
2023-02-12T20:03:48.389Z,1.10
2023-02-12T20:06:19.100Z,1.10
2023-02-12T20:08:46.326Z,1.10
2023-02-12T20:11:20.934Z,1.10
2023-02-12T20:13:47.924Z,1.10
2023-02-12T20:16:19.176Z,1.20
2023-02-12T20:18:48.728Z,1.30
2023-02-12T20:21:19.325Z,1.40
2023-02-12T20:23:46.433Z,1.40
2023-02-12T20:26:14.595Z,1.30
2023-02-12T20:28:43.013Z,1.30
2023-02-12T20:31:10.172Z,1.30
2023-02-12T20:33:37.582Z,1.30
2023-02-12T20:36:04.991Z,1.20
2023-02-12T20:38:31.972Z,1.10
2023-02-12T20:41:02.909Z,1.00
2023-02-12T20:43:30.921Z,0.90
2023-02-12T20:46:05.813Z,0.80
2023-02-12T20:48:32.831Z,0.80
2023-02-12T20:51:08.456Z,0.70
2023-02-12T20:53:36.220Z,0.70
2023-02-12T20:56:24.604Z,0.60
2023-02-12T20:58:52.355Z,0.50
2023-02-12T21:01:22.293Z,0.40
2023-02-12T21:03:51.623Z,0.30
2023-02-12T21:06:20.019Z,0.20
2023-02-12T21:08:47.212Z,0.20
2023-02-12T21:11:17.640Z,0.20
2023-02-12T21:13:58.830Z,0.10
2023-02-12T21:16:38.444Z,0.10
2023-02-12T21:19:05.911Z,0.00
2023-02-12T21:21:35.701Z,0.00
2023-02-12T21:24:07.438Z,0.00
2023-02-12T21:26:35.772Z,0.00
2023-02-12T21:29:03.786Z,0.00
2023-02-12T21:31:33.842Z,0.10
2023-02-12T21:34:02.150Z,0.10
2023-02-12T21:36:33.957Z,0.10
2023-02-12T21:39:01.297Z,0.30
2023-02-12T21:41:31.289Z,0.30
2023-02-12T21:44:01.008Z,0.50
2023-02-12T21:46:28.950Z,0.50
2023-02-12T21:48:57.586Z,0.60
2023-02-12T21:51:27.447Z,0.60
2023-02-12T21:54:00.796Z,0.60
2023-02-12T21:56:28.263Z,0.70
2023-02-12T21:58:55.910Z,0.60
2023-02-12T22:01:28.625Z,0.50
2023-02-12T22:03:55.735Z,0.50
2023-02-12T22:06:24.890Z,0.40
2023-02-12T22:08:56.036Z,0.30
2023-02-12T22:11:23.549Z,0.30
2023-02-12T22:13:50.380Z,0.20
2023-02-12T22:16:25.377Z,0.30
2023-02-12T22:18:55.425Z,0.40
2023-02-12T22:21:24.211Z,0.40
2023-02-12T22:23:51.885Z,0.40
2023-02-12T22:26:27.926Z,0.50
2023-02-12T22:29:01.517Z,0.40
2023-02-12T22:31:32.363Z,0.30
2023-02-12T22:34:02.810Z,0.20
2023-02-12T22:36:30.105Z,0.00
2023-02-12T22:39:00.693Z,0.00
2023-02-12T22:41:28.280Z,-0.10
2023-02-12T22:43:55.254Z,-0.20
2023-02-12T22:46:22.184Z,-0.20
2023-02-12T22:48:49.119Z,-0.30
2023-02-12T22:51:28.070Z,-0.30
2023-02-12T22:53:55.411Z,-0.40
2023-02-12T22:56:23.172Z,-0.50
2023-02-12T22:58:57.772Z,-0.60
2023-02-12T23:01:25.457Z,-0.70
2023-02-12T23:03:52.944Z,-0.80
2023-02-12T23:06:22.892Z,-0.80
2023-02-12T23:08:51.465Z,-0.90
2023-02-12T23:11:19.581Z,-0.90
2023-02-12T23:13:46.538Z,-1.00
2023-02-12T23:16:13.881Z,-1.00
2023-02-12T23:18:40.985Z,-1.20
2023-02-12T23:21:08.054Z,-1.20
2023-02-12T23:23:35.149Z,-1.30
2023-02-12T23:26:02.431Z,-1.30
2023-02-12T23:28:29.788Z,-1.40
2023-02-12T23:30:57.642Z,-1.50
2023-02-12T23:33:25.133Z,-1.50
2023-02-12T23:35:51.975Z,-1.50
2023-02-12T23:38:18.925Z,-1.60
2023-02-12T23:40:47.075Z,-1.50
2023-02-12T23:43:14.090Z,-1.50
2023-02-12T23:45:42.503Z,-1.30
2023-02-12T23:48:09.298Z,-1.00
2023-02-12T23:50:36.135Z,-1.10
2023-02-12T23:53:02.937Z,-1.10
2023-02-12T23:55:29.872Z,-1.10
2023-02-12T23:57:56.814Z,-1.10
